Time;durP1;ratioP1;P1;durP2;ratioP2;P2;SDS_P1;SDS_P2;PMS_P1;PMS_P2;Temp;Humidity;BMP_temperature;BMP_pressure;BME280_temperature;BME280_humidity;BME280_pressure;Samples;Min_cycle;Max_cycle;Signal;HPM_P1;HPM_P2
2023/01/10 00:00:24;;;;;;;0.40;0.40;;;;;;;;;;5049619;28;20114;-82
2023/01/10 00:02:51;;;;;;;0.40;0.30;;;;;;;;;;5066579;28;20123;-84
2023/01/10 00:05:17;;;;;;;0.57;0.30;;;;;;;;;;5065456;28;20046;-82
2023/01/10 00:07:43;;;;;;;0.50;0.50;;;;;;;;;;5066214;28;20061;-84
2023/01/10 00:10:09;;;;;;;1.00;0.50;;;;;;;;;;5067137;28;20123;-82
2023/01/10 00:15:19;;;;;;;0.40;0.40;;;;;;;;;;5084118;28;20036;-83
2023/01/10 00:17:44;;;;;;;0.60;0.30;;;;;;;;;;5084745;28;20096;-83
2023/01/10 00:20:10;;;;;;;0.32;0.32;;;;;;;;;;5049809;28;20037;-83
2023/01/10 00:22:36;;;;;;;0.40;0.40;;;;;;;;;;5064932;28;20060;-84
2023/01/10 00:25:01;;;;;;;0.65;0.50;;;;;;;;;;5083184;28;20036;-83
2023/01/10 00:27:27;;;;;;;0.70;0.50;;;;;;;;;;5084197;28;20029;-84
2023/01/10 00:29:53;;;;;;;0.80;0.43;;;;;;;;;;5066181;28;20059;-84
2023/01/10 00:32:20;;;;;;;0.77;0.60;;;;;;;;;;5065468;28;20127;-81
2023/01/10 00:34:45;;;;;;;0.40;0.40;;;;;;;;;;5082824;28;20037;-83
2023/01/10 00:37:11;;;;;;;4.05;0.70;;;;;;;;;;5066386;28;20064;-82
2023/01/10 00:39:36;;;;;;;0.55;0.50;;;;;;;;;;5064755;28;20027;-82
2023/01/10 00:44:46;;;;;;;0.70;0.52;;;;;;;;;;5064511;28;20041;-84
2023/01/10 00:47:14;;;;;;;0.45;0.45;;;;;;;;;;5084268;28;20021;-84
2023/01/10 00:49:40;;;;;;;0.77;0.60;;;;;;;;;;5083872;28;20038;-83
2023/01/10 00:52:06;;;;;;;0.60;0.60;;;;;;;;;;5065711;28;20123;-83
2023/01/10 00:54:31;;;;;;;0.50;0.50;;;;;;;;;;5065034;28;20033;-84
2023/01/10 00:56:57;;;;;;;0.45;0.45;;;;;;;;;;5065920;28;20029;-85
2023/01/10 00:59:22;;;;;;;0.70;0.60;;;;;;;;;;5083728;28;20400;-82
2023/01/10 01:01:49;;;;;;;0.75;0.60;;;;;;;;;;5049144;28;20020;-83
2023/01/10 01:04:16;;;;;;;1.10;0.77;;;;;;;;;;5082896;28;20090;-82
2023/01/10 01:06:46;;;;;;;1.17;0.60;;;;;;;;;;5065294;28;20033;-84
2023/01/10 01:09:12;;;;;;;0.73;0.47;;;;;;;;;;5065459;28;20041;-84
2023/01/10 01:11:38;;;;;;;1.75;0.60;;;;;;;;;;5047002;28;20507;-83
2023/01/10 01:14:04;;;;;;;0.50;0.50;;;;;;;;;;5063899;28;20033;-84
2023/01/10 01:16:30;;;;;;;0.60;0.60;;;;;;;;;;5048695;28;20051;-84
2023/01/10 01:18:56;;;;;;;1.42;0.77;;;;;;;;;;5064924;28;20047;-84
2023/01/10 01:21:26;;;;;;;0.52;0.52;;;;;;;;;;5052540;28;20036;-85
2023/01/10 01:23:55;;;;;;;0.70;0.63;;;;;;;;;;5068785;28;20062;-84
2023/01/10 01:26:24;;;;;;;2.28;0.70;;;;;;;;;;5051950;28;20036;-82
2023/01/10 01:28:50;;;;;;;0.50;0.50;;;;;;;;;;5068755;28;20163;-85
2023/01/10 01:31:16;;;;;;;1.25;0.70;;;;;;;;;;5087637;28;20028;-85
2023/01/10 01:33:42;;;;;;;1.15;0.70;;;;;;;;;;5069462;28;20041;-84
2023/01/10 01:36:09;;;;;;;1.55;0.70;;;;;;;;;;5051342;28;20091;-83
2023/01/10 01:38:35;;;;;;;1.38;0.77;;;;;;;;;;5066489;28;20067;-83
2023/01/10 01:41:01;;;;;;;0.95;0.70;;;;;;;;;;5068781;28;20059;-83
2023/01/10 01:43:30;;;;;;;0.80;0.70;;;;;;;;;;5086523;28;20489;-84
2023/01/10 01:46:00;;;;;;;1.20;0.57;;;;;;;;;;5067920;28;20033;-83
2023/01/10 01:48:32;;;;;;;1.60;0.60;;;;;;;;;;5068793;28;20081;-82
2023/01/10 01:51:25;;;;;;;1.35;0.70;;;;;;;;;;5087101;28;20538;-84
2023/01/10 01:54:10;;;;;;;1.00;0.60;;;;;;;;;;5065662;28;20044;-83
2023/01/10 01:57:02;;;;;;;1.48;0.57;;;;;;;;;;5068084;28;20037;-83
2023/01/10 01:59:42;;;;;;;1.73;0.90;;;;;;;;;;5043799;28;20052;-83
2023/01/10 02:02:15;;;;;;;0.77;0.60;;;;;;;;;;5086626;28;20036;-83
2023/01/10 02:04:49;;;;;;;1.73;0.70;;;;;;;;;;5067250;28;20033;-84
2023/01/10 02:07:15;;;;;;;1.90;0.80;;;;;;;;;;5067716;28;20037;-83
2023/01/10 02:10:12;;;;;;;2.72;0.60;;;;;;;;;;5067807;28;20024;-83
2023/01/10 02:12:38;;;;;;;1.05;0.70;;;;;;;;;;5052243;28;20048;-84
2023/01/10 02:15:05;;;;;;;1.63;0.98;;;;;;;;;;5067191;28;20111;-84
2023/01/10 02:17:30;;;;;;;1.42;0.70;;;;;;;;;;5050535;28;20064;-83
2023/01/10 02:20:05;;;;;;;2.75;0.70;;;;;;;;;;5086344;28;20036;-82
2023/01/10 02:22:48;;;;;;;1.20;0.90;;;;;;;;;;5085459;28;20051;-83
2023/01/10 02:25:35;;;;;;;1.08;0.68;;;;;;;;;;5067138;28;20032;-83
2023/01/10 02:28:39;;;;;;;1.60;0.75;;;;;;;;;;5067833;28;20032;-84
2023/01/10 02:31:16;;;;;;;1.30;0.70;;;;;;;;;;5050741;28;20028;-83
2023/01/10 02:33:50;;;;;;;1.23;0.60;;;;;;;;;;5067447;28;20520;-84
2023/01/10 02:36:50;;;;;;;0.68;0.50;;;;;;;;;;5084642;28;20033;-83
2023/01/10 02:39:38;;;;;;;1.20;0.77;;;;;;;;;;5084967;28;20090;-83
2023/01/10 02:42:03;;;;;;;1.00;0.60;;;;;;;;;;5051142;28;20458;-82
2023/01/10 02:44:57;;;;;;;0.80;0.70;;;;;;;;;;5085792;28;20036;-83
2023/01/10 02:47:22;;;;;;;4.90;0.70;;;;;;;;;;5085174;28;20044;-85
2023/01/10 02:49:49;;;;;;;0.70;0.60;;;;;;;;;;5067126;28;20043;-83
2023/01/10 02:52:29;;;;;;;1.98;0.70;;;;;;;;;;5067750;28;20032;-82
2023/01/10 02:55:00;;;;;;;0.90;0.60;;;;;;;;;;5065024;28;20040;-84
2023/01/10 02:57:28;;;;;;;1.65;0.75;;;;;;;;;;5085270;28;20493;-82
2023/01/10 03:00:09;;;;;;;0.88;0.60;;;;;;;;;;5050045;28;20115;-82
2023/01/10 03:02:44;;;;;;;0.93;0.60;;;;;;;;;;5067020;28;20036;-83
2023/01/10 03:05:09;;;;;;;0.77;0.50;;;;;;;;;;5083638;28;20409;-82
2023/01/10 03:07:38;;;;;;;0.45;0.45;;;;;;;;;;5065397;28;20463;-84
2023/01/10 03:10:21;;;;;;;1.38;0.70;;;;;;;;;;5084576;28;20078;-84
2023/01/10 03:12:56;;;;;;;0.83;0.60;;;;;;;;;;5066258;28;20036;-83
2023/01/10 03:15:25;;;;;;;1.63;0.60;;;;;;;;;;5065143;28;20054;-84
2023/01/10 03:17:55;;;;;;;2.85;0.60;;;;;;;;;;5066164;28;20040;-83
2023/01/10 03:20:22;;;;;;;1.27;0.57;;;;;;;;;;5066614;28;20556;-81
2023/01/10 03:22:50;;;;;;;1.17;0.60;;;;;;;;;;5083320;28;20036;-84
2023/01/10 03:25:20;;;;;;;2.03;0.60;;;;;;;;;;5065274;28;20048;-83
2023/01/10 03:27:56;;;;;;;1.15;0.50;;;;;;;;;;5049656;28;20029;-83
2023/01/10 03:30:41;;;;;;;0.98;0.50;;;;;;;;;;5083702;28;20036;-83
2023/01/10 03:33:08;;;;;;;0.60;0.60;;;;;;;;;;5065201;28;20036;-83
2023/01/10 03:35:53;;;;;;;0.88;0.60;;;;;;;;;;5082815;28;20067;-84
2023/01/10 03:38:25;;;;;;;0.88;0.60;;;;;;;;;;5047265;28;20029;-83
2023/01/10 03:41:03;;;;;;;0.90;0.50;;;;;;;;;;5083745;28;20040;-83
2023/01/10 03:46:48;;;;;;;0.75;0.50;;;;;;;;;;5084126;28;20029;-84
2023/01/10 03:49:15;;;;;;;0.63;0.50;;;;;;;;;;5083703;28;20037;-81
2023/01/10 03:51:41;;;;;;;1.85;0.68;;;;;;;;;;5064754;28;20033;-84
2023/01/10 03:54:07;;;;;;;0.93;0.60;;;;;;;;;;5082718;28;20091;-81
2023/01/10 03:56:46;;;;;;;2.50;0.60;;;;;;;;;;5064913;28;20075;-84
2023/01/10 03:59:11;;;;;;;1.13;0.70;;;;;;;;;;5083377;28;20081;-84
2023/01/10 04:01:37;;;;;;;1.77;0.65;;;;;;;;;;5082062;28;20087;-84
2023/01/10 04:04:03;;;;;;;2.58;0.63;;;;;;;;;;5081317;28;20048;-82
2023/01/10 04:06:29;;;;;;;0.60;0.60;;;;;;;;;;5065833;28;20374;-85
2023/01/10 04:08:54;;;;;;;1.85;0.60;;;;;;;;;;5083777;28;20032;-84
2023/01/10 04:11:20;;;;;;;2.25;0.70;;;;;;;;;;5083880;28;20426;-83
2023/01/10 04:13:45;;;;;;;0.70;0.60;;;;;;;;;;5064792;28;20540;-82
2023/01/10 04:16:11;;;;;;;1.75;0.57;;;;;;;;;;5064590;28;20036;-82
2023/01/10 04:18:36;;;;;;;1.25;0.70;;;;;;;;;;5049337;28;20138;-82
2023/01/10 04:21:02;;;;;;;0.93;0.70;;;;;;;;;;5063651;28;20040;-84
2023/01/10 04:23:27;;;;;;;0.65;0.50;;;;;;;;;;5064486;28;20033;-84
2023/01/10 04:25:53;;;;;;;0.70;0.52;;;;;;;;;;5082009;28;20040;-82
2023/01/10 04:28:18;;;;;;;2.03;0.60;;;;;;;;;;5063807;28;20029;-85
2023/01/10 04:30:44;;;;;;;1.70;0.70;;;;;;;;;;5065016;28;20064;-84
2023/01/10 04:33:11;;;;;;;1.35;0.50;;;;;;;;;;5048382;28;20029;-83
2023/01/10 04:35:36;;;;;;;0.95;0.55;;;;;;;;;;5064623;28;20058;-84
2023/01/10 04:38:02;;;;;;;4.30;0.70;;;;;;;;;;5063571;28;20043;-85
2023/01/10 04:40:27;;;;;;;1.25;0.50;;;;;;;;;;5083256;28;20061;-82
2023/01/10 04:42:53;;;;;;;2.45;0.75;;;;;;;;;;5064519;28;20079;-83
2023/01/10 04:45:21;;;;;;;1.48;0.50;;;;;;;;;;5082805;28;20054;-83
2023/01/10 04:47:51;;;;;;;1.73;0.70;;;;;;;;;;5064767;28;20032;-83
2023/01/10 04:50:17;;;;;;;1.10;0.70;;;;;;;;;;5083085;28;20493;-84
2023/01/10 04:52:42;;;;;;;1.52;0.95;;;;;;;;;;5084098;28;20160;-84
2023/01/10 04:55:09;;;;;;;1.27;0.70;;;;;;;;;;5067381;28;20037;-83
2023/01/10 04:57:34;;;;;;;1.25;0.70;;;;;;;;;;5086913;28;20052;-83
2023/01/10 05:00:00;;;;;;;1.10;0.85;;;;;;;;;;5086771;28;20036;-84
2023/01/10 05:02:25;;;;;;;0.70;0.70;;;;;;;;;;5087770;28;20544;-83
2023/01/10 05:04:51;;;;;;;3.25;0.80;;;;;;;;;;5085932;28;20036;-83
2023/01/10 05:07:16;;;;;;;0.80;0.70;;;;;;;;;;5068280;28;20118;-82
2023/01/10 05:09:42;;;;;;;0.77;0.68;;;;;;;;;;5086237;28;20123;-81
2023/01/10 05:12:08;;;;;;;2.20;0.80;;;;;;;;;;5068630;28;20037;-83
2023/01/10 05:14:33;;;;;;;1.20;0.70;;;;;;;;;;5085625;28;20447;-84
2023/01/10 05:16:58;;;;;;;1.10;0.80;;;;;;;;;;5067191;28;20039;-83
2023/01/10 05:19:24;;;;;;;1.42;0.80;;;;;;;;;;5069064;28;20025;-83
2023/01/10 05:21:51;;;;;;;2.15;0.90;;;;;;;;;;5086102;28;20036;-83
2023/01/10 05:24:17;;;;;;;0.98;0.80;;;;;;;;;;5067029;28;20094;-83
2023/01/10 05:26:42;;;;;;;1.75;1.00;;;;;;;;;;5068671;28;20043;-84
2023/01/10 05:29:11;;;;;;;2.03;0.70;;;;;;;;;;5068533;28;20033;-83
2023/01/10 05:31:37;;;;;;;1.60;0.90;;;;;;;;;;5068801;28;20068;-82
2023/01/10 05:34:02;;;;;;;1.85;1.00;;;;;;;;;;5085176;28;20535;-83
2023/01/10 05:36:28;;;;;;;1.55;0.82;;;;;;;;;;5086434;28;20066;-83
2023/01/10 05:38:53;;;;;;;0.90;0.60;;;;;;;;;;5065852;28;20092;-83
2023/01/10 05:41:19;;;;;;;0.93;0.80;;;;;;;;;;5051330;28;20032;-83
2023/01/10 05:43:44;;;;;;;1.25;0.80;;;;;;;;;;5066907;28;20037;-84
2023/01/10 05:46:10;;;;;;;1.83;1.00;;;;;;;;;;5051328;28;20033;-83
2023/01/10 05:48:35;;;;;;;1.02;0.90;;;;;;;;;;5067034;28;20477;-83
2023/01/10 05:51:01;;;;;;;1.58;1.00;;;;;;;;;;5067521;28;20069;-83
2023/01/10 05:53:26;;;;;;;0.80;0.80;;;;;;;;;;5085973;28;20568;-84
2023/01/10 05:55:57;;;;;;;1.48;0.90;;;;;;;;;;5066253;28;20029;-82
2023/01/10 05:58:22;;;;;;;1.98;0.90;;;;;;;;;;5067492;28;20028;-83
2023/01/10 06:00:48;;;;;;;2.40;0.95;;;;;;;;;;5085490;28;20068;-83
2023/01/10 06:03:14;;;;;;;1.60;0.90;;;;;;;;;;5066216;28;20107;-83
2023/01/10 06:05:39;;;;;;;3.58;1.25;;;;;;;;;;5066269;28;20060;-84
2023/01/10 06:08:05;;;;;;;1.20;1.05;;;;;;;;;;5050056;28;20054;-84
2023/01/10 06:10:30;;;;;;;2.63;0.90;;;;;;;;;;5066673;28;20036;-81
2023/01/10 06:12:56;;;;;;;2.15;0.98;;;;;;;;;;5085357;28;20037;-83
2023/01/10 06:15:21;;;;;;;3.20;1.85;;;;;;;;;;5066605;28;20404;-84
2023/01/10 06:17:47;;;;;;;4.38;1.58;;;;;;;;;;5050101;28;20138;-83
2023/01/10 06:20:12;;;;;;;2.35;1.40;;;;;;;;;;5050542;28;20047;-84
2023/01/10 06:22:42;;;;;;;2.67;1.27;;;;;;;;;;5066262;28;20058;-83
2023/01/10 06:25:12;;;;;;;2.47;1.50;;;;;;;;;;5065804;28;20052;-85
2023/01/10 06:27:40;;;;;;;1.52;1.00;;;;;;;;;;5084742;28;20064;-84
2023/01/10 06:30:06;;;;;;;3.75;1.90;;;;;;;;;;5049250;28;20537;-84
2023/01/10 06:32:32;;;;;;;2.17;1.10;;;;;;;;;;5066121;28;20113;-85
2023/01/10 06:34:57;;;;;;;2.75;0.98;;;;;;;;;;5086003;28;20041;-83
2023/01/10 06:37:22;;;;;;;1.55;1.05;;;;;;;;;;5086871;28;20164;-84
2023/01/10 06:39:50;;;;;;;1.52;1.10;;;;;;;;;;5086317;28;20089;-84
2023/01/10 06:42:15;;;;;;;1.83;1.10;;;;;;;;;;5052090;28;20044;-83
2023/01/10 06:44:41;;;;;;;1.63;1.05;;;;;;;;;;5086277;28;20134;-83
2023/01/10 06:47:07;;;;;;;1.40;0.95;;;;;;;;;;5068703;28;20039;-83
2023/01/10 06:49:32;;;;;;;1.45;1.02;;;;;;;;;;5068932;28;20423;-84
2023/01/10 06:51:58;;;;;;;1.75;1.10;;;;;;;;;;5068747;28;20036;-83
2023/01/10 06:54:23;;;;;;;1.20;0.93;;;;;;;;;;5067942;28;20040;-85
2023/01/10 06:56:49;;;;;;;1.20;1.10;;;;;;;;;;5067465;28;20032;-84
2023/01/10 06:59:14;;;;;;;1.98;1.13;;;;;;;;;;5086732;28;20105;-84
2023/01/10 07:01:40;;;;;;;1.67;1.05;;;;;;;;;;5051383;28;20094;-83
2023/01/10 07:04:05;;;;;;;1.80;0.80;;;;;;;;;;5066206;28;20042;-83
2023/01/10 07:06:36;;;;;;;2.50;0.95;;;;;;;;;;5087295;28;20037;-84
2023/01/10 07:09:02;;;;;;;0.90;0.80;;;;;;;;;;5068012;28;20032;-82
2023/01/10 07:11:28;;;;;;;1.80;1.30;;;;;;;;;;5066562;28;20075;-83
2023/01/10 07:13:53;;;;;;;1.73;1.23;;;;;;;;;;5051317;28;20067;-85
2023/01/10 07:16:19;;;;;;;2.65;1.10;;;;;;;;;;5085779;28;20036;-83
2023/01/10 07:18:44;;;;;;;1.23;0.95;;;;;;;;;;5084660;28;20071;-83
2023/01/10 07:21:10;;;;;;;1.13;1.02;;;;;;;;;;5085500;28;20088;-84
2023/01/10 07:23:37;;;;;;;1.00;0.90;;;;;;;;;;5085673;28;20037;-83
2023/01/10 07:26:08;;;;;;;1.67;0.90;;;;;;;;;;5085377;28;20055;-83
2023/01/10 07:28:34;;;;;;;1.00;0.80;;;;;;;;;;5067842;28;20033;-84
2023/01/10 07:31:01;;;;;;;1.48;1.00;;;;;;;;;;5067661;28;20039;-84
2023/01/10 07:33:27;;;;;;;0.98;0.88;;;;;;;;;;5067551;28;20060;-83
2023/01/10 07:35:53;;;;;;;1.50;0.80;;;;;;;;;;5085003;28;20043;-83
2023/01/10 07:38:19;;;;;;;0.90;0.82;;;;;;;;;;5049530;28;20036;-83
2023/01/10 07:40:44;;;;;;;1.27;0.80;;;;;;;;;;5067009;28;20036;-85
2023/01/10 07:43:10;;;;;;;1.10;0.85;;;;;;;;;;5085363;28;20036;-83
2023/01/10 07:45:35;;;;;;;1.35;0.80;;;;;;;;;;5064438;28;20094;-83
2023/01/10 07:48:03;;;;;;;1.17;1.00;;;;;;;;;;5083865;28;20032;-83
2023/01/10 07:50:31;;;;;;;0.70;0.70;;;;;;;;;;5049258;28;20085;-84
2023/01/10 07:52:58;;;;;;;1.17;0.90;;;;;;;;;;5049205;28;20036;-81
2023/01/10 07:55:24;;;;;;;1.10;0.93;;;;;;;;;;5081871;28;20032;-81
2023/01/10 07:57:50;;;;;;;1.52;1.10;;;;;;;;;;5082936;28;20047;-83
2023/01/10 08:00:17;;;;;;;1.45;1.00;;;;;;;;;;5064978;28;20041;-83
2023/01/10 08:02:43;;;;;;;1.40;1.10;;;;;;;;;;5048056;28;20056;-84
2023/01/10 08:05:09;;;;;;;1.50;1.20;;;;;;;;;;5084428;28;20067;-82
2023/01/10 08:07:35;;;;;;;1.42;1.10;;;;;;;;;;5067693;28;20065;-82
2023/01/10 08:10:01;;;;;;;2.15;1.00;;;;;;;;;;5067165;28;20512;-83
2023/01/10 08:12:26;;;;;;;1.10;0.90;;;;;;;;;;5084808;28;20032;-83
2023/01/10 08:14:52;;;;;;;1.08;0.98;;;;;;;;;;5065954;28;20062;-82
2023/01/10 08:17:18;;;;;;;1.17;1.00;;;;;;;;;;5065328;28;20056;-82
2023/01/10 08:19:44;;;;;;;1.10;0.90;;;;;;;;;;5067174;28;20036;-83
2023/01/10 08:22:10;;;;;;;1.00;0.90;;;;;;;;;;5050012;28;20047;-82
2023/01/10 08:24:35;;;;;;;1.02;0.90;;;;;;;;;;5065841;28;20063;-83
2023/01/10 08:27:01;;;;;;;1.67;0.90;;;;;;;;;;5066862;28;20059;-81
2023/01/10 08:29:27;;;;;;;1.17;0.95;;;;;;;;;;5084452;28;20042;-82
2023/01/10 08:31:52;;;;;;;1.52;1.30;;;;;;;;;;5084382;28;20047;-82
2023/01/10 08:34:18;;;;;;;2.35;0.85;;;;;;;;;;5083711;28;20036;-84
2023/01/10 08:36:45;;;;;;;1.27;0.93;;;;;;;;;;5083369;28;20067;-84
2023/01/10 08:39:11;;;;;;;1.17;1.00;;;;;;;;;;5064132;28;20071;-83
2023/01/10 08:41:39;;;;;;;1.30;1.00;;;;;;;;;;5046509;28;20040;-83
2023/01/10 08:44:05;;;;;;;1.38;1.10;;;;;;;;;;5047376;28;20040;-83
2023/01/10 08:46:33;;;;;;;1.50;1.10;;;;;;;;;;5064191;28;20146;-81
2023/01/10 08:48:59;;;;;;;1.30;1.20;;;;;;;;;;5083291;28;20044;-83
2023/01/10 08:51:25;;;;;;;2.50;1.20;;;;;;;;;;5047958;28;20054;-84
2023/01/10 08:53:50;;;;;;;1.80;1.33;;;;;;;;;;5064868;28;20040;-85
2023/01/10 08:56:16;;;;;;;2.95;1.80;;;;;;;;;;5064364;28;20056;-84
2023/01/10 08:58:41;;;;;;;2.78;1.20;;;;;;;;;;5047802;28;20032;-84
2023/01/10 09:01:08;;;;;;;1.92;1.38;;;;;;;;;;5065245;28;20062;-85
2023/01/10 09:03:34;;;;;;;2.97;1.60;;;;;;;;;;5083646;28;20092;-84
2023/01/10 09:06:00;;;;;;;3.10;1.95;;;;;;;;;;5067953;28;20047;-84
2023/01/10 09:08:26;;;;;;;3.17;2.17;;;;;;;;;;5064735;28;20029;-85
2023/01/10 09:10:52;;;;;;;6.00;2.60;;;;;;;;;;5065117;28;20045;-84
2023/01/10 09:13:17;;;;;;;3.88;2.15;;;;;;;;;;5083734;28;20085;-84
2023/01/10 09:15:43;;;;;;;6.40;2.92;;;;;;;;;;5063098;28;20063;-83
2023/01/10 09:18:10;;;;;;;7.10;2.78;;;;;;;;;;5080586;28;20021;-82
2023/01/10 09:20:40;;;;;;;4.75;2.60;;;;;;;;;;5080109;28;20036;-83
2023/01/10 09:23:17;;;;;;;11.90;5.00;;;;;;;;;;5061710;28;20028;-84
2023/01/10 09:25:43;;;;;;;3.42;2.28;;;;;;;;;;5062183;28;20099;-82
2023/01/10 09:28:09;;;;;;;2.33;1.75;;;;;;;;;;5061946;28;20020;-83
2023/01/10 09:30:35;;;;;;;2.50;1.80;;;;;;;;;;5080927;28;20458;-83
2023/01/10 09:33:01;;;;;;;3.28;1.90;;;;;;;;;;5080383;28;20036;-81
2023/01/10 09:35:28;;;;;;;2.85;1.63;;;;;;;;;;5045920;28;20047;-83
2023/01/10 09:38:02;;;;;;;2.88;1.92;;;;;;;;;;5085543;28;20090;-82
2023/01/10 09:40:52;;;;;;;2.72;1.90;;;;;;;;;;5068833;28;20046;-84
2023/01/10 09:43:31;;;;;;;3.30;1.98;;;;;;;;;;5071527;28;20278;-82
2023/01/10 09:46:00;;;;;;;3.38;2.00;;;;;;;;;;5071533;28;20042;-83
2023/01/10 09:48:48;;;;;;;3.83;2.03;;;;;;;;;;5071731;28;20039;-82
2023/01/10 09:51:32;;;;;;;3.10;2.05;;;;;;;;;;5089486;28;20055;-83
2023/01/10 09:54:01;;;;;;;4.10;2.10;;;;;;;;;;5053097;28;20082;-82
2023/01/10 09:56:28;;;;;;;3.28;2.10;;;;;;;;;;5066535;28;20067;-83
2023/01/10 09:58:55;;;;;;;2.80;2.10;;;;;;;;;;5065788;28;20037;-82
2023/01/10 10:01:26;;;;;;;3.88;2.15;;;;;;;;;;5083491;28;20488;-84
2023/01/10 10:03:55;;;;;;;5.10;2.17;;;;;;;;;;5048749;28;20029;-83
2023/01/10 10:06:22;;;;;;;5.03;1.90;;;;;;;;;;5054087;28;20564;-82
2023/01/10 10:08:47;;;;;;;4.38;2.22;;;;;;;;;;5069345;28;20051;-82
2023/01/10 10:11:25;;;;;;;5.43;2.40;;;;;;;;;;5087889;28;20040;-84
2023/01/10 10:14:02;;;;;;;2.42;1.88;;;;;;;;;;5070023;28;20043;-82
2023/01/10 10:16:31;;;;;;;4.97;2.05;;;;;;;;;;5053165;28;20036;-82
2023/01/10 10:19:05;;;;;;;6.35;2.33;;;;;;;;;;5087300;28;20043;-82
2023/01/10 10:21:55;;;;;;;4.05;2.00;;;;;;;;;;5069799;28;20418;-82
2023/01/10 10:24:45;;;;;;;3.67;2.08;;;;;;;;;;5087117;28;20037;-82
2023/01/10 10:27:36;;;;;;;4.75;2.00;;;;;;;;;;5068474;28;20036;-82
2023/01/10 10:30:30;;;;;;;5.50;1.90;;;;;;;;;;5069075;28;20112;-83
2023/01/10 10:33:25;;;;;;;5.95;2.03;;;;;;;;;;5068855;28;20029;-85
2023/01/10 10:35:58;;;;;;;3.00;1.90;;;;;;;;;;5087712;28;20055;-83
2023/01/10 10:38:30;;;;;;;6.47;2.15;;;;;;;;;;5070408;28;20104;-82
2023/01/10 10:40:58;;;;;;;3.72;2.00;;;;;;;;;;5069728;28;20090;-82
2023/01/10 10:43:30;;;;;;;7.85;1.98;;;;;;;;;;5070975;28;20033;-84
2023/01/10 10:46:12;;;;;;;5.45;1.90;;;;;;;;;;5087650;28;20058;-82
2023/01/10 10:49:00;;;;;;;2.77;1.60;;;;;;;;;;5087781;28;20059;-83
2023/01/10 10:51:48;;;;;;;3.70;1.48;;;;;;;;;;5069625;28;20029;-82
2023/01/10 10:54:15;;;;;;;3.72;1.50;;;;;;;;;;5104503;23;20138;-86
2023/01/10 10:56:42;;;;;;;3.63;1.65;;;;;;;;;;5117827;28;20038;-86
2023/01/10 10:59:08;;;;;;;3.58;1.65;;;;;;;;;;5117506;28;20035;-86
2023/01/10 11:01:33;;;;;;;4.60;1.85;;;;;;;;;;5100014;28;20089;-86
2023/01/10 11:04:12;;;;;;;3.33;1.70;;;;;;;;;;5124277;28;20043;-87
2023/01/10 11:06:47;;;;;;;6.07;1.60;;;;;;;;;;5097168;28;20046;-86
2023/01/10 11:09:17;;;;;;;3.65;1.60;;;;;;;;;;5096922;28;20074;-85
2023/01/10 11:11:45;;;;;;;3.70;1.60;;;;;;;;;;5115245;28;20032;-86
2023/01/10 11:14:12;;;;;;;7.55;1.60;;;;;;;;;;5095976;28;20130;-87
2023/01/10 11:16:39;;;;;;;4.75;1.52;;;;;;;;;;5114508;28;20031;-87
2023/01/10 11:19:21;;;;;;;6.05;1.70;;;;;;;;;;5114415;28;20041;-86
2023/01/10 11:21:49;;;;;;;4.97;1.63;;;;;;;;;;5094051;28;20480;-84
2023/01/10 11:24:49;;;;;;;4.30;1.55;;;;;;;;;;5113106;28;20082;-86
2023/01/10 11:27:18;;;;;;;5.97;1.80;;;;;;;;;;5126054;28;20070;-86
2023/01/10 11:29:50;;;;;;;4.38;1.65;;;;;;;;;;5099050;28;20122;-84
2023/01/10 11:32:18;;;;;;;3.55;1.50;;;;;;;;;;5097728;28;20035;-85
2023/01/10 11:34:52;;;;;;;2.92;1.50;;;;;;;;;;5117558;28;20036;-84
2023/01/10 11:37:20;;;;;;;3.30;1.30;;;;;;;;;;5117485;28;20035;-85
2023/01/10 11:39:46;;;;;;;3.63;1.50;;;;;;;;;;5115686;28;20034;-84
2023/01/10 11:42:24;;;;;;;3.45;1.30;;;;;;;;;;5115265;28;20031;-86
2023/01/10 11:44:49;;;;;;;3.92;1.45;;;;;;;;;;5115832;28;20556;-86
2023/01/10 11:47:19;;;;;;;2.63;1.38;;;;;;;;;;5098323;28;20020;-86
2023/01/10 11:49:46;;;;;;;3.15;1.30;;;;;;;;;;5097253;28;20130;-88
2023/01/10 11:52:23;;;;;;;2.75;1.10;;;;;;;;;;5115407;28;20036;-84
2023/01/10 11:54:49;;;;;;;4.70;1.33;;;;;;;;;;5096010;28;20390;-85
2023/01/10 11:57:18;;;;;;;2.88;1.40;;;;;;;;;;5114782;28;20475;-84
2023/01/10 11:59:57;;;;;;;3.28;1.20;;;;;;;;;;5079469;28;20035;-85
2023/01/10 12:02:26;;;;;;;2.00;1.17;;;;;;;;;;5115006;28;20034;-85
2023/01/10 12:04:54;;;;;;;3.60;1.10;;;;;;;;;;5095700;28;20039;-86
2023/01/10 12:07:21;;;;;;;2.92;1.25;;;;;;;;;;5123880;28;20035;-87
2023/01/10 12:09:52;;;;;;;4.05;1.10;;;;;;;;;;5114538;28;20039;-87
2023/01/10 12:12:27;;;;;;;3.35;1.20;;;;;;;;;;5115230;28;20043;-86
2023/01/10 12:14:55;;;;;;;3.65;1.05;;;;;;;;;;5115428;28;20032;-85
2023/01/10 12:17:25;;;;;;;3.28;1.20;;;;;;;;;;5114161;28;20020;-86
2023/01/10 12:19:52;;;;;;;2.75;1.00;;;;;;;;;;5114518;28;20039;-87
2023/01/10 12:22:20;;;;;;;5.03;1.40;;;;;;;;;;5113687;28;20100;-85
2023/01/10 12:24:49;;;;;;;3.88;1.00;;;;;;;;;;5113195;28;20027;-83
2023/01/10 12:27:16;;;;;;;2.65;1.10;;;;;;;;;;5113990;28;20039;-85
2023/01/10 12:29:46;;;;;;;5.05;1.25;;;;;;;;;;5113921;28;20467;-84
2023/01/10 12:32:25;;;;;;;4.22;1.20;;;;;;;;;;5078794;28;20043;-84
2023/01/10 12:35:01;;;;;;;3.13;1.02;;;;;;;;;;5102717;22;20127;-85
2023/01/10 12:37:29;;;;;;;3.70;1.20;;;;;;;;;;5091528;28;20036;-85
2023/01/10 12:40:01;;;;;;;2.72;0.90;;;;;;;;;;5072998;28;20040;-83
2023/01/10 12:48:15;;;;;;;5.63;1.90;;;;;;;;;;5054989;28;20044;-84
2023/01/10 12:50:45;;;;;;;8.98;2.30;;;;;;;;;;5057033;28;20366;-85
2023/01/10 12:53:27;;;;;;;9.55;3.42;;;;;;;;;;5075486;28;20028;-85
2023/01/10 12:55:55;;;;;;;6.10;1.13;;;;;;;;;;5077636;28;20046;-85
2023/01/10 12:58:30;;;;;;;4.53;1.17;;;;;;;;;;5096209;28;20039;-85
2023/01/10 13:00:59;;;;;;;6.38;1.10;;;;;;;;;;5077384;28;20480;-84
2023/01/10 13:03:29;;;;;;;3.55;1.10;;;;;;;;;;5096078;28;20115;-85
2023/01/10 13:05:56;;;;;;;3.50;1.10;;;;;;;;;;5095760;28;20103;-85
2023/01/10 13:08:25;;;;;;;1.92;1.00;;;;;;;;;;5095858;28;20081;-85
2023/01/10 13:10:53;;;;;;;4.40;1.02;;;;;;;;;;5095809;28;20044;-84
2023/01/10 13:13:49;;;;;;;2.85;1.05;;;;;;;;;;5095933;28;20115;-84
2023/01/10 13:16:26;;;;;;;4.07;1.30;;;;;;;;;;5080773;28;20497;-85
2023/01/10 13:19:10;;;;;;;3.05;1.15;;;;;;;;;;5081303;28;20036;-85
2023/01/10 13:21:37;;;;;;;;;;;;;;;;;;5082239;28;20047;-82
2023/01/10 13:24:06;;;;;;;2.50;0.90;;;;;;;;;;5081298;28;19912;-84
2023/01/10 13:26:51;;;;;;;2.13;0.93;;;;;;;;;;5099528;28;20423;-84
2023/01/10 13:29:20;;;;;;;2.55;0.93;;;;;;;;;;5081569;28;20400;-88
2023/01/10 13:31:48;;;;;;;4.35;1.20;;;;;;;;;;5098898;28;20445;-83
2023/01/10 13:34:15;;;;;;;6.70;1.15;;;;;;;;;;5099152;28;20492;-83
2023/01/10 13:36:46;;;;;;;3.60;1.10;;;;;;;;;;5080374;28;20085;-83
2023/01/10 13:39:34;;;;;;;3.67;1.30;;;;;;;;;;5080773;28;20028;-83
2023/01/10 13:45:16;;;;;;;3.17;1.00;;;;;;;;;;5098819;28;20646;-85
2023/01/10 13:47:42;;;;;;;6.22;1.17;;;;;;;;;;5053811;28;20107;-84
2023/01/10 13:50:42;;;;;;;2.85;1.20;;;;;;;;;;5098368;28;20039;-83
2023/01/10 13:53:11;;;;;;;5.10;1.08;;;;;;;;;;5098685;28;20028;-83
2023/01/10 13:55:41;;;;;;;4.38;1.20;;;;;;;;;;5098305;28;20036;-83
2023/01/10 13:58:13;;;;;;;3.10;1.05;;;;;;;;;;5081819;28;20032;-82
2023/01/10 14:03:50;;;;;;;3.72;1.08;;;;;;;;;;5080807;28;20061;-84
2023/01/10 14:06:40;;;;;;;2.40;1.00;;;;;;;;;;5098541;28;20032;-83
2023/01/10 14:09:11;;;;;;;3.45;1.27;;;;;;;;;;5063317;28;20036;-83
2023/01/10 14:11:43;;;;;;;4.00;1.35;;;;;;;;;;5098192;28;20080;-84
2023/01/10 14:14:38;;;;;;;5.65;1.70;;;;;;;;;;5097728;28;20032;-83
2023/01/10 14:17:14;;;;;;;5.00;1.30;;;;;;;;;;5096047;28;20132;-84
2023/01/10 14:19:43;;;;;;;6.97;2.35;;;;;;;;;;5079684;28;20036;-83
2023/01/10 14:22:23;;;;;;;7.82;1.70;;;;;;;;;;5080581;28;20043;-84
2023/01/10 14:24:51;;;;;;;6.50;3.97;;;;;;;;;;5097807;28;20036;-84
2023/01/10 14:27:19;;;;;;;6.53;3.25;;;;;;;;;;5097753;28;20020;-83
2023/01/10 14:30:06;;;;;;;4.60;2.70;;;;;;;;;;5098609;28;20036;-84
2023/01/10 14:32:38;;;;;;;8.40;2.85;;;;;;;;;;5097867;28;20392;-84
2023/01/10 14:35:07;;;;;;;5.80;2.72;;;;;;;;;;5098377;28;20040;-84
2023/01/10 14:37:41;;;;;;;4.18;2.35;;;;;;;;;;5097109;28;20028;-84
2023/01/10 14:40:20;;;;;;;7.05;3.05;;;;;;;;;;5080228;28;20126;-84
2023/01/10 14:42:48;;;;;;;7.38;2.60;;;;;;;;;;5098725;28;20036;-85
2023/01/10 14:45:29;;;;;;;6.63;3.40;;;;;;;;;;5098189;28;20101;-87
2023/01/10 14:47:54;;;;;;;6.82;2.58;;;;;;;;;;5079688;28;20047;-85
2023/01/10 14:50:31;;;;;;;7.43;3.60;;;;;;;;;;5098222;28;20040;-85
2023/01/10 14:52:58;;;;;;;10.00;4.63;;;;;;;;;;5080155;28;20068;-85
2023/01/10 14:55:24;;;;;;;4.72;2.13;;;;;;;;;;5097533;28;20031;-84
2023/01/10 14:57:54;;;;;;;4.63;1.67;;;;;;;;;;5096549;28;20047;-85
2023/01/10 15:00:25;;;;;;;4.75;1.77;;;;;;;;;;5098077;28;20043;-85
2023/01/10 15:02:50;;;;;;;4.00;1.65;;;;;;;;;;5098251;28;20089;-85
2023/01/10 15:05:25;;;;;;;6.00;1.60;;;;;;;;;;5097481;28;20031;-84
2023/01/10 15:07:51;;;;;;;3.80;2.20;;;;;;;;;;5097899;28;20036;-85
2023/01/10 15:10:23;;;;;;;6.10;2.10;;;;;;;;;;5098421;28;20109;-85
2023/01/10 15:12:52;;;;;;;18.73;8.20;;;;;;;;;;5079426;28;20403;-85
2023/01/10 15:15:26;;;;;;;10.10;4.88;;;;;;;;;;5097934;28;20024;-85
2023/01/10 15:17:51;;;;;;;4.70;2.20;;;;;;;;;;5097215;28;20111;-85
2023/01/10 15:20:19;;;;;;;8.52;3.63;;;;;;;;;;5097313;28;20040;-85